createdAt,value
2022-12-14T00:01:27.059Z,7.97
2022-12-14T00:03:54.926Z,10.20
2022-12-14T00:06:24.176Z,8.57
2022-12-14T00:08:52.985Z,9.43
2022-12-14T00:11:20.131Z,9.15
2022-12-14T00:13:49.027Z,8.98
2022-12-14T00:16:18.016Z,9.80
2022-12-14T00:18:48.808Z,8.85
2022-12-14T00:21:15.703Z,10.27
2022-12-14T00:23:45.187Z,8.68
2022-12-14T00:26:17.112Z,8.80
2022-12-14T00:28:45.166Z,8.45
2022-12-14T00:31:12.986Z,8.25
2022-12-14T00:33:40.717Z,7.78
2022-12-14T00:36:09.586Z,8.18
2022-12-14T00:38:37.168Z,8.45
2022-12-14T00:41:05.034Z,9.38
2022-12-14T00:43:32.285Z,9.05
2022-12-14T00:45:59.203Z,8.57
2022-12-14T00:48:27.205Z,8.38
2022-12-14T00:50:55.676Z,6.93
2022-12-14T00:53:24.416Z,7.57
2022-12-14T00:55:52.100Z,7.75
2022-12-14T00:58:21.141Z,8.13
2022-12-14T01:00:58.236Z,8.35
2022-12-14T01:03:25.656Z,8.70
2022-12-14T01:05:52.692Z,9.18
2022-12-14T01:08:20.686Z,9.95
2022-12-14T01:10:47.785Z,7.97
2022-12-14T01:13:14.603Z,11.77
2022-12-14T01:15:41.788Z,8.10
2022-12-14T01:18:08.733Z,11.05
2022-12-14T01:20:36.414Z,11.10
2022-12-14T01:23:03.235Z,9.35
2022-12-14T01:25:30.116Z,9.52
2022-12-14T01:27:56.935Z,10.57
2022-12-14T01:30:23.872Z,10.15
2022-12-14T01:32:50.694Z,11.40
2022-12-14T01:35:17.608Z,10.35
2022-12-14T01:37:44.480Z,9.27
2022-12-14T01:40:11.710Z,10.32
2022-12-14T01:42:38.672Z,10.98
2022-12-14T01:45:06.600Z,8.70
2022-12-14T01:47:46.948Z,10.77
2022-12-14T01:50:26.103Z,8.93
2022-12-14T01:52:58.961Z,10.65
2022-12-14T01:55:37.774Z,12.00
2022-12-14T01:58:15.382Z,11.88
2022-12-14T02:00:43.454Z,13.20
2022-12-14T02:03:33.721Z,11.00
2022-12-14T02:06:06.370Z,9.95
2022-12-14T02:08:34.022Z,10.48
2022-12-14T02:11:02.969Z,10.23
2022-12-14T02:13:36.579Z,9.75
2022-12-14T02:16:03.880Z,10.32
2022-12-14T02:18:32.583Z,8.48
2022-12-14T02:21:02.389Z,9.48
2022-12-14T02:24:17.328Z,12.15
2022-12-14T02:27:08.456Z,8.38
2022-12-14T02:30:04.235Z,11.13
2022-12-14T02:32:49.272Z,14.45
2022-12-14T02:35:39.081Z,13.43
2022-12-14T02:38:23.398Z,10.73
2022-12-14T02:43:31.731Z,11.73
2022-12-14T02:46:13.365Z,11.15
2022-12-14T02:48:48.022Z,11.98
2022-12-14T02:51:26.317Z,9.80
2022-12-14T02:53:53.054Z,12.18
2022-12-14T02:56:25.702Z,12.48
2022-12-14T02:58:53.687Z,8.43
2022-12-14T03:01:25.148Z,12.30
2022-12-14T03:03:52.311Z,12.63
2022-12-14T03:06:27.301Z,11.32
2022-12-14T03:09:17.543Z,10.02
2022-12-14T03:11:47.101Z,9.07
2022-12-14T03:14:23.133Z,9.10
2022-12-14T03:16:51.954Z,10.23
2022-12-14T03:19:25.651Z,10.68
2022-12-14T03:22:00.034Z,9.95
2022-12-14T03:24:35.834Z,9.13
2022-12-14T03:27:12.860Z,11.73
2022-12-14T03:29:46.865Z,11.38
2022-12-14T03:34:52.663Z,9.35
2022-12-14T03:37:53.131Z,11.50
2022-12-14T03:40:30.562Z,12.32
2022-12-14T03:43:13.375Z,10.18
2022-12-14T03:45:47.099Z,10.07
2022-12-14T03:48:39.143Z,8.85
2022-12-14T03:51:34.216Z,9.20
2022-12-14T03:54:12.820Z,10.35
2022-12-14T03:56:55.483Z,10.70
2022-12-14T03:59:22.263Z,9.65
2022-12-14T04:01:49.382Z,9.80
2022-12-14T04:04:27.444Z,9.85
2022-12-14T04:07:20.795Z,11.77
2022-12-14T04:09:56.484Z,11.07
2022-12-14T04:12:53.711Z,9.63
2022-12-14T04:15:44.326Z,9.18
2022-12-14T04:18:38.206Z,9.90
2022-12-14T04:21:15.789Z,10.82
2022-12-14T04:24:07.448Z,11.50
2022-12-14T04:26:40.635Z,14.52
2022-12-14T04:29:32.599Z,9.20
2022-12-14T04:32:23.268Z,10.88
2022-12-14T04:34:57.381Z,8.32
2022-12-14T04:39:55.028Z,9.10
2022-12-14T04:42:45.160Z,9.75
2022-12-14T04:45:19.228Z,10.30
2022-12-14T04:50:36.470Z,7.43
2022-12-14T04:53:11.005Z,9.75
2022-12-14T04:55:53.771Z,9.43
2022-12-14T04:58:27.269Z,8.07
2022-12-14T05:01:20.631Z,6.45
2022-12-14T05:04:12.577Z,11.20
2022-12-14T05:06:57.764Z,9.18
2022-12-14T05:09:30.226Z,10.85
2022-12-14T05:12:07.380Z,9.85
2022-12-14T05:14:44.051Z,10.40
2022-12-14T05:17:11.414Z,9.93
2022-12-14T05:19:45.467Z,8.98
2022-12-14T05:22:18.077Z,9.77
2022-12-14T05:24:44.898Z,14.27
2022-12-14T05:27:11.880Z,15.85
2022-12-14T05:29:38.938Z,13.20
2022-12-14T05:32:05.878Z,13.77
2022-12-14T05:34:32.702Z,12.05
2022-12-14T05:36:59.550Z,13.32
2022-12-14T05:39:26.350Z,13.90
2022-12-14T05:41:53.485Z,15.27
2022-12-14T05:44:20.409Z,13.07
2022-12-14T05:46:47.382Z,13.57
2022-12-14T05:49:14.299Z,13.45
2022-12-14T05:51:41.951Z,13.10
2022-12-14T05:54:08.953Z,16.15
2022-12-14T05:56:35.895Z,16.15
2022-12-14T05:59:02.881Z,15.38
2022-12-14T06:01:29.732Z,15.25
2022-12-14T06:03:56.772Z,17.75
2022-12-14T06:06:23.648Z,20.75
2022-12-14T06:08:50.589Z,18.98
2022-12-14T06:11:20.258Z,14.18
2022-12-14T06:13:48.033Z,17.13
2022-12-14T06:16:41.190Z,13.52
2022-12-14T06:19:08.717Z,13.20
2022-12-14T06:21:38.337Z,17.00
2022-12-14T06:24:06.278Z,16.55
2022-12-14T06:26:40.892Z,18.50
2022-12-14T06:29:15.895Z,16.52
2022-12-14T06:31:42.882Z,14.82
2022-12-14T06:34:11.238Z,16.35
2022-12-14T06:36:40.548Z,15.02
2022-12-14T06:39:11.569Z,14.95
2022-12-14T06:41:40.239Z,15.88
2022-12-14T06:44:10.254Z,15.23
2022-12-14T06:46:37.389Z,18.27
2022-12-14T06:49:05.955Z,16.90
2022-12-14T06:51:33.667Z,16.90
2022-12-14T06:54:00.499Z,15.68
2022-12-14T06:56:28.125Z,17.83
2022-12-14T06:58:56.005Z,15.65
2022-12-14T07:01:24.764Z,12.68
2022-12-14T07:03:54.680Z,15.57
2022-12-14T07:06:24.284Z,16.85
2022-12-14T07:08:56.682Z,17.00
2022-12-14T07:11:24.031Z,15.00
2022-12-14T07:13:51.087Z,17.67
2022-12-14T07:16:25.049Z,18.45
2022-12-14T07:18:53.775Z,18.95
2022-12-14T07:21:22.324Z,17.33
2022-12-14T07:23:51.901Z,18.10
2022-12-14T07:26:22.623Z,19.38
2022-12-14T07:28:50.963Z,16.30
2022-12-14T07:31:28.851Z,15.88
2022-12-14T07:33:58.473Z,16.50
2022-12-14T07:36:28.216Z,16.40
2022-12-14T07:38:55.896Z,15.27
2022-12-14T07:41:26.104Z,17.67
2022-12-14T07:43:54.594Z,15.88
2022-12-14T07:46:25.227Z,14.15
2022-12-14T07:48:54.425Z,18.60
2022-12-14T07:51:27.406Z,18.02
2022-12-14T07:53:55.016Z,18.63
2022-12-14T07:56:27.840Z,17.58
2022-12-14T07:58:56.393Z,14.10
2022-12-14T08:01:29.989Z,13.38
2022-12-14T08:04:00.454Z,15.45
2022-12-14T08:06:29.485Z,15.55
2022-12-14T08:08:57.238Z,13.68
2022-12-14T08:11:25.193Z,12.25
2022-12-14T08:14:01.376Z,15.48
2022-12-14T08:16:28.844Z,12.13
2022-12-14T08:18:57.370Z,14.02
2022-12-14T08:21:25.196Z,14.43
2022-12-14T08:23:53.264Z,16.73
2022-12-14T08:26:20.841Z,14.05
2022-12-14T08:28:48.623Z,17.48
2022-12-14T08:31:21.248Z,15.20
2022-12-14T08:33:49.298Z,15.20
2022-12-14T08:36:22.542Z,14.15
2022-12-14T08:38:57.241Z,20.08
2022-12-14T08:41:25.903Z,15.93
2022-12-14T08:43:58.895Z,17.08
2022-12-14T08:46:27.713Z,15.98
2022-12-14T08:48:56.311Z,16.77
2022-12-14T08:51:24.810Z,14.68
2022-12-14T08:53:53.029Z,16.13
2022-12-14T08:56:27.537Z,15.68
2022-12-14T08:58:55.513Z,16.58
2022-12-14T09:01:32.785Z,16.00
2022-12-14T09:04:08.757Z,16.40
2022-12-14T09:06:38.837Z,16.10
2022-12-14T09:09:15.262Z,16.05
2022-12-14T09:11:43.568Z,17.27
2022-12-14T09:14:11.098Z,17.95
2022-12-14T09:16:38.452Z,15.00
2022-12-14T09:19:06.013Z,19.15
2022-12-14T09:21:32.871Z,14.75
2022-12-14T09:24:00.157Z,16.55
2022-12-14T09:26:27.872Z,16.75
2022-12-14T09:28:56.307Z,18.88
2022-12-14T09:31:25.609Z,21.58
2022-12-14T09:33:52.912Z,17.45
2022-12-14T09:36:22.792Z,19.23
2022-12-14T09:38:52.244Z,15.60
2022-12-14T09:41:35.150Z,16.98
2022-12-14T09:44:18.741Z,16.23
2022-12-14T09:46:55.574Z,17.73
2022-12-14T09:49:29.636Z,18.25
2022-12-14T09:54:29.915Z,15.55
2022-12-14T09:57:01.484Z,18.10
2022-12-14T09:59:30.196Z,17.58
2022-12-14T10:02:30.173Z,17.75
2022-12-14T10:05:33.012Z,15.98
2022-12-14T10:08:18.573Z,14.32
2022-12-14T10:11:15.701Z,16.77
2022-12-14T10:14:01.179Z,17.90
2022-12-14T10:16:47.044Z,15.90
2022-12-14T10:19:26.120Z,15.85
2022-12-14T10:22:01.892Z,16.48
2022-12-14T10:24:42.388Z,13.18
2022-12-14T10:27:14.176Z,14.52
2022-12-14T10:29:49.575Z,15.43
2022-12-14T10:32:21.546Z,16.55
2022-12-14T10:34:49.100Z,12.95
2022-12-14T10:37:36.432Z,14.95
2022-12-14T10:40:17.427Z,19.20
2022-12-14T10:43:04.931Z,14.20
2022-12-14T10:45:42.608Z,15.23
2022-12-14T10:48:28.286Z,15.38
2022-12-14T10:51:10.616Z,16.13
2022-12-14T10:53:51.649Z,18.08
2022-12-14T10:56:31.633Z,14.60
2022-12-14T10:59:26.557Z,15.27
2022-12-14T11:01:57.520Z,18.23
2022-12-14T11:04:33.881Z,16.10
2022-12-14T11:07:04.668Z,15.43
2022-12-14T11:09:32.186Z,15.55
2022-12-14T11:12:03.926Z,16.50
2022-12-14T11:14:31.303Z,18.33
2022-12-14T11:16:58.268Z,13.30
2022-12-14T11:19:29.883Z,12.90
2022-12-14T11:22:21.741Z,13.77
2022-12-14T11:24:49.206Z,14.68
2022-12-14T11:27:21.048Z,15.45
2022-12-14T11:29:50.153Z,14.35
2022-12-14T11:32:24.078Z,17.02
2022-12-14T11:34:57.555Z,13.50
2022-12-14T11:37:27.272Z,14.93
2022-12-14T11:39:57.708Z,12.52
2022-12-14T11:42:25.359Z,18.25
2022-12-14T11:44:53.670Z,14.02
2022-12-14T11:47:26.312Z,14.77
2022-12-14T11:49:55.405Z,15.07
2022-12-14T11:52:36.987Z,16.48
2022-12-14T11:55:23.034Z,18.70
2022-12-14T11:57:57.192Z,12.82
2022-12-14T12:00:30.814Z,19.30
2022-12-14T12:03:13.837Z,14.35
2022-12-14T12:05:43.348Z,14.02
2022-12-14T12:08:26.940Z,12.70
2022-12-14T12:11:01.974Z,14.88
2022-12-14T12:13:38.335Z,17.85
2022-12-14T12:16:09.983Z,14.82
2022-12-14T12:18:48.624Z,14.07
2022-12-14T12:21:33.395Z,15.63
2022-12-14T12:24:12.231Z,13.75
2022-12-14T12:26:59.975Z,13.20
2022-12-14T12:29:59.311Z,17.63
2022-12-14T12:32:43.585Z,16.27
2022-12-14T12:35:22.351Z,16.95
2022-12-14T12:38:09.838Z,16.98
2022-12-14T12:41:00.623Z,13.95
2022-12-14T12:43:33.990Z,16.52
2022-12-14T12:46:06.358Z,16.50
2022-12-14T12:48:49.414Z,14.93
2022-12-14T12:51:29.264Z,15.43
2022-12-14T12:54:06.653Z,13.93
2022-12-14T12:56:48.221Z,13.77
2022-12-14T12:59:33.340Z,12.38
2022-12-14T13:02:26.802Z,13.68
2022-12-14T13:04:54.988Z,11.55
2022-12-14T13:07:57.578Z,12.70
2022-12-14T13:10:30.189Z,11.48
2022-12-14T13:13:09.839Z,13.00
2022-12-14T13:15:41.590Z,8.98
2022-12-14T13:18:56.564Z,12.43
2022-12-14T13:21:32.844Z,12.65
2022-12-14T13:23:59.867Z,13.05
2022-12-14T13:26:57.848Z,14.45
2022-12-14T13:29:45.951Z,15.85
2022-12-14T13:32:29.876Z,14.35
2022-12-14T13:35:12.526Z,12.88
2022-12-14T13:38:07.046Z,13.85
2022-12-14T13:41:01.695Z,13.10
2022-12-14T13:46:07.015Z,12.90
2022-12-14T13:48:39.801Z,12.02
2022-12-14T13:51:08.611Z,13.25
2022-12-14T13:53:43.623Z,13.65
2022-12-14T13:56:29.271Z,9.60
2022-12-14T13:59:01.237Z,12.48
2022-12-14T14:01:46.671Z,14.95
2022-12-14T14:04:16.705Z,11.98
2022-12-14T14:06:44.894Z,15.25
2022-12-14T14:09:27.156Z,13.30
2022-12-14T14:12:15.237Z,14.52
2022-12-14T14:15:22.672Z,12.30
2022-12-14T14:17:54.836Z,11.75
2022-12-14T14:20:44.921Z,9.88
2022-12-14T14:23:14.647Z,10.73
2022-12-14T14:25:51.841Z,10.80
2022-12-14T14:28:23.151Z,10.88
2022-12-14T14:30:56.658Z,12.35
2022-12-14T14:33:47.356Z,10.60
2022-12-14T14:36:36.885Z,11.50
2022-12-14T14:39:54.829Z,12.48
2022-12-14T14:42:25.179Z,13.00
2022-12-14T14:44:56.708Z,13.07
2022-12-14T14:47:34.559Z,13.43
2022-12-14T14:50:16.716Z,10.27
2022-12-14T14:52:43.533Z,15.18
2022-12-14T14:55:52.151Z,13.05
2022-12-14T14:58:26.713Z,13.93
2022-12-14T15:01:11.979Z,12.02
2022-12-14T15:04:06.354Z,11.90
2022-12-14T15:06:40.832Z,12.70
2022-12-14T15:09:32.437Z,13.93
2022-12-14T15:12:04.431Z,12.38
2022-12-14T15:14:43.360Z,13.10
2022-12-14T15:17:15.165Z,14.48
2022-12-14T15:19:52.397Z,15.15
2022-12-14T15:22:22.504Z,11.43
2022-12-14T15:24:52.881Z,12.25
2022-12-14T15:27:39.291Z,13.02
2022-12-14T15:30:12.333Z,12.20
2022-12-14T15:32:47.413Z,11.65
2022-12-14T15:35:17.566Z,10.85
2022-12-14T15:38:14.307Z,11.27
2022-12-14T15:40:41.321Z,10.38
2022-12-14T15:43:20.213Z,11.43
2022-12-14T15:45:50.399Z,11.50
2022-12-14T15:48:27.711Z,11.20
2022-12-14T15:50:58.721Z,13.07
2022-12-14T15:53:38.078Z,14.02
2022-12-14T15:56:46.226Z,13.23
2022-12-14T15:59:17.578Z,13.85
2022-12-14T16:01:53.524Z,12.25
2022-12-14T16:04:25.917Z,11.07
2022-12-14T16:07:03.027Z,9.70
2022-12-14T16:09:37.953Z,10.48
2022-12-14T16:12:07.257Z,14.77
2022-12-14T16:14:45.350Z,11.55
2022-12-14T16:17:15.654Z,14.45
2022-12-14T16:19:59.609Z,9.48
2022-12-14T16:22:32.446Z,12.07
2022-12-14T16:25:08.472Z,13.35
2022-12-14T16:27:41.701Z,9.95
2022-12-14T16:30:22.832Z,10.23
2022-12-14T16:32:52.953Z,10.65
2022-12-14T16:35:24.808Z,12.65
2022-12-14T16:37:54.262Z,11.35
2022-12-14T16:40:37.746Z,14.52
2022-12-14T16:43:06.942Z,12.10
2022-12-14T16:45:39.574Z,11.93
2022-12-14T16:48:08.376Z,7.65
2022-12-14T16:53:24.408Z,10.88
2022-12-14T16:56:18.418Z,12.35
2022-12-14T16:58:53.487Z,11.35
2022-12-14T17:01:20.930Z,11.75
2022-12-14T17:03:59.078Z,15.77
2022-12-14T17:06:49.665Z,15.15
2022-12-14T17:09:25.883Z,18.33
2022-12-14T17:11:57.380Z,24.75
2022-12-14T17:14:24.244Z,25.20
2022-12-14T17:17:01.908Z,25.95
2022-12-14T17:19:35.679Z,38.17
2022-12-14T17:22:06.476Z,40.92
2022-12-14T17:24:36.990Z,29.23
2022-12-14T17:27:04.376Z,25.77
2022-12-14T17:29:33.342Z,17.30
2022-12-14T17:32:02.834Z,17.23
2022-12-14T17:34:30.626Z,15.48
2022-12-14T17:36:57.620Z,13.98
2022-12-14T17:39:25.000Z,10.45
2022-12-14T17:41:52.269Z,13.75
2022-12-14T17:44:20.666Z,11.40
2022-12-14T17:46:49.885Z,19.13
2022-12-14T17:49:33.739Z,17.77
2022-12-14T17:52:04.199Z,9.95
2022-12-14T17:54:32.251Z,13.70
2022-12-14T17:56:59.918Z,14.07
2022-12-14T17:59:26.882Z,10.68
2022-12-14T18:01:53.824Z,13.57
2022-12-14T18:04:20.774Z,12.88
2022-12-14T18:06:47.659Z,13.70
2022-12-14T18:09:16.092Z,12.43
2022-12-14T18:12:00.563Z,16.02
2022-12-14T18:14:29.713Z,17.33
2022-12-14T18:17:00.885Z,14.13
2022-12-14T18:19:29.779Z,12.60
2022-12-14T18:21:56.693Z,10.57
2022-12-14T18:24:26.052Z,11.75
2022-12-14T18:26:53.209Z,9.93
2022-12-14T18:29:20.676Z,12.82
2022-12-14T18:31:49.691Z,12.15
2022-12-14T18:34:17.210Z,12.38
2022-12-14T18:36:44.135Z,16.50
2022-12-14T18:39:11.002Z,12.07
2022-12-14T18:41:37.896Z,10.57
2022-12-14T18:44:04.964Z,12.73
2022-12-14T18:46:32.378Z,36.65
2022-12-14T18:49:00.004Z,24.00
2022-12-14T18:51:27.427Z,17.88
2022-12-14T18:53:56.214Z,19.98
2022-12-14T18:56:25.634Z,18.40
2022-12-14T18:58:53.489Z,16.75
2022-12-14T19:01:22.766Z,20.77
2022-12-14T19:03:50.553Z,16.80
2022-12-14T19:09:09.544Z,14.02
2022-12-14T19:11:42.049Z,12.52
2022-12-14T19:14:10.103Z,15.00
2022-12-14T19:16:37.606Z,12.45
2022-12-14T19:19:04.806Z,14.52
2022-12-14T19:21:31.799Z,15.20
2022-12-14T19:24:00.746Z,11.63
2022-12-14T19:26:28.793Z,14.50
2022-12-14T19:28:56.129Z,13.73
2022-12-14T19:31:23.414Z,14.30
2022-12-14T19:33:50.431Z,16.98
2022-12-14T19:36:17.398Z,13.77
2022-12-14T19:38:44.925Z,13.10
2022-12-14T19:41:17.901Z,14.02
2022-12-14T19:43:44.867Z,13.73
2022-12-14T19:46:13.687Z,14.68
2022-12-14T19:48:42.224Z,12.48
2022-12-14T19:51:11.348Z,13.45
2022-12-14T19:53:40.438Z,16.17
2022-12-14T19:56:07.455Z,14.95
2022-12-14T19:58:34.741Z,17.02
2022-12-14T20:01:02.050Z,15.13
2022-12-14T20:03:29.561Z,12.98
2022-12-14T20:05:59.344Z,15.20
2022-12-14T20:08:30.783Z,18.27
2022-12-14T20:10:59.011Z,16.10
2022-12-14T20:13:28.227Z,16.98
2022-12-14T20:15:58.924Z,15.00
2022-12-14T20:18:28.028Z,15.45
2022-12-14T20:21:02.714Z,17.10
2022-12-14T20:23:29.965Z,15.25
2022-12-14T20:26:01.194Z,14.93
2022-12-14T20:28:28.064Z,14.07
2022-12-14T20:30:55.815Z,14.10
2022-12-14T20:33:28.013Z,17.45
2022-12-14T20:38:23.681Z,15.25
2022-12-14T20:40:50.624Z,18.92
2022-12-14T20:43:17.612Z,16.80
2022-12-14T20:45:44.567Z,19.02
2022-12-14T20:48:11.594Z,21.15
2022-12-14T20:50:40.271Z,18.55
2022-12-14T20:53:07.374Z,18.85
2022-12-14T20:55:35.159Z,18.38
2022-12-14T20:58:02.000Z,19.70
2022-12-14T21:00:29.349Z,18.13
2022-12-14T21:02:56.415Z,23.15
2022-12-14T21:05:23.388Z,19.15
2022-12-14T21:07:50.315Z,18.60
2022-12-14T21:10:17.332Z,20.77
2022-12-14T21:12:47.068Z,19.75
2022-12-14T21:15:14.309Z,23.17
2022-12-14T21:17:41.197Z,21.83
2022-12-14T21:20:08.401Z,18.52
2022-12-14T21:22:35.366Z,20.63
2022-12-14T21:25:04.364Z,21.50
2022-12-14T21:27:33.079Z,18.85
2022-12-14T21:30:00.515Z,18.20
2022-12-14T21:32:28.281Z,19.35
2022-12-14T21:34:55.378Z,20.30
2022-12-14T21:37:22.242Z,17.67
2022-12-14T21:39:55.020Z,19.98
2022-12-14T21:42:26.038Z,18.65
2022-12-14T21:44:54.018Z,18.45
2022-12-14T21:47:29.397Z,20.15
2022-12-14T21:49:56.775Z,18.98
2022-12-14T21:52:26.752Z,24.02
2022-12-14T21:54:53.802Z,18.95
2022-12-14T21:57:50.542Z,17.70
2022-12-14T22:00:18.647Z,19.25
2022-12-14T22:02:45.641Z,19.23
2022-12-14T22:05:13.142Z,20.33
2022-12-14T22:07:40.101Z,18.75
2022-12-14T22:10:08.228Z,20.00
2022-12-14T22:12:35.227Z,19.95
2022-12-14T22:15:02.029Z,21.33
2022-12-14T22:17:28.845Z,20.83
2022-12-14T22:19:55.875Z,20.38
2022-12-14T22:22:23.007Z,19.52
2022-12-14T22:24:51.292Z,22.98
2022-12-14T22:27:19.548Z,18.63
2022-12-14T22:29:46.750Z,18.50
2022-12-14T22:32:14.651Z,19.50
2022-12-14T22:34:41.676Z,18.40
2022-12-14T22:37:08.524Z,20.67
2022-12-14T22:39:35.546Z,18.67
2022-12-14T22:42:02.512Z,19.42
2022-12-14T22:44:29.469Z,18.98
2022-12-14T22:46:56.301Z,18.27
2022-12-14T22:49:23.962Z,18.52
2022-12-14T22:51:50.793Z,20.90
2022-12-14T22:54:23.084Z,19.30
2022-12-14T22:57:02.330Z,19.13
2022-12-14T22:59:47.844Z,17.90
2022-12-14T23:02:14.964Z,18.25
2022-12-14T23:04:41.998Z,18.98
2022-12-14T23:07:08.884Z,18.65
2022-12-14T23:09:54.508Z,22.38
2022-12-14T23:12:40.389Z,18.13
2022-12-14T23:15:25.966Z,20.88
2022-12-14T23:18:20.482Z,17.48
2022-12-14T23:23:51.401Z,16.20
2022-12-14T23:26:37.311Z,20.45
2022-12-14T23:29:22.612Z,22.63
2022-12-14T23:32:07.920Z,22.33
2022-12-14T23:34:53.327Z,21.15
2022-12-14T23:37:38.776Z,22.10
2022-12-14T23:40:25.019Z,22.77
2022-12-14T23:43:10.410Z,21.63
2022-12-14T23:45:56.039Z,20.75
2022-12-14T23:48:41.381Z,20.65
2022-12-14T23:51:27.143Z,18.45
2022-12-14T23:54:12.770Z,19.85
2022-12-14T23:56:58.156Z,18.48
2022-12-14T23:59:43.634Z,19.27
